createdAt,value
2023-03-05T00:00:14.643Z,2.10
2023-03-05T00:00:46.454Z,2.20
2023-03-05T00:01:22.600Z,2.10
2023-03-05T00:01:54.581Z,2.10
2023-03-05T00:02:26.498Z,2.10
2023-03-05T00:02:59.333Z,2.10
2023-03-05T00:03:31.169Z,2.20
2023-03-05T00:04:05.275Z,2.10
2023-03-05T00:04:38.201Z,2.10
2023-03-05T00:05:10.858Z,2.10
2023-03-05T00:05:42.661Z,2.10
2023-03-05T00:06:17.305Z,2.10
2023-03-05T00:06:49.222Z,2.10
2023-03-05T00:07:21.996Z,2.00
2023-03-05T00:07:53.768Z,2.00
2023-03-05T00:08:25.672Z,2.00
2023-03-05T00:08:58.375Z,2.00
2023-03-05T00:09:31.270Z,2.00
2023-03-05T00:10:04.877Z,2.00
2023-03-05T00:10:36.732Z,2.00
2023-03-05T00:11:11.828Z,2.00
2023-03-05T00:11:43.824Z,2.00
2023-03-05T00:12:17.156Z,2.00
2023-03-05T00:12:48.966Z,2.10
2023-03-05T00:13:22.235Z,2.10
2023-03-05T00:13:55.469Z,2.10
2023-03-05T00:14:27.356Z,2.10
2023-03-05T00:14:59.186Z,2.10
2023-03-05T00:15:32.005Z,2.10
2023-03-05T00:16:05.023Z,2.10
2023-03-05T00:16:36.805Z,2.10
2023-03-05T00:17:09.715Z,2.10
2023-03-05T00:17:41.570Z,2.10
2023-03-05T00:18:13.375Z,2.10
2023-03-05T00:18:46.244Z,2.10
2023-03-05T00:19:18.090Z,2.10
2023-03-05T00:19:50.622Z,2.10
2023-03-05T00:20:23.416Z,2.10
2023-03-05T00:20:55.268Z,2.00
2023-03-05T00:21:29.734Z,2.00
2023-03-05T00:22:02.502Z,2.00
2023-03-05T00:22:34.686Z,2.00
2023-03-05T00:23:06.530Z,2.00
2023-03-05T00:23:38.329Z,2.00
2023-03-05T00:24:13.612Z,2.00
2023-03-05T00:24:45.438Z,2.00
2023-03-05T00:25:17.302Z,2.00
2023-03-05T00:25:50.138Z,2.00
2023-03-05T00:26:24.282Z,1.90
2023-03-05T00:26:57.253Z,1.90
2023-03-05T00:27:29.045Z,2.00
2023-03-05T00:28:00.856Z,1.90
2023-03-05T00:28:34.072Z,1.90
2023-03-05T00:29:08.458Z,2.00
2023-03-05T00:29:40.300Z,2.00
2023-03-05T00:30:13.308Z,2.00
2023-03-05T00:30:45.151Z,2.00
2023-03-05T00:31:18.175Z,2.00
2023-03-05T00:31:50.262Z,2.10
2023-03-05T00:32:22.219Z,2.00
2023-03-05T00:32:55.042Z,1.90
2023-03-05T00:33:27.075Z,2.00
2023-03-05T00:34:01.356Z,1.90
2023-03-05T00:34:34.214Z,1.90
2023-03-05T00:35:06.801Z,1.90
2023-03-05T00:35:42.603Z,1.80
2023-03-05T00:36:15.408Z,1.80
2023-03-05T00:36:49.572Z,1.80
2023-03-05T00:37:21.393Z,1.80
2023-03-05T00:37:54.559Z,1.80
2023-03-05T00:38:26.372Z,1.80
2023-03-05T00:38:58.724Z,1.80
2023-03-05T00:39:31.471Z,1.80
2023-03-05T00:40:04.106Z,1.80
2023-03-05T00:40:37.415Z,1.80
2023-03-05T00:41:10.238Z,1.80
2023-03-05T00:41:42.043Z,1.80
2023-03-05T00:42:13.908Z,1.80
2023-03-05T00:42:46.774Z,1.80
2023-03-05T00:43:18.574Z,1.80
2023-03-05T00:43:51.720Z,1.80
2023-03-05T00:44:24.507Z,1.80
2023-03-05T00:44:56.321Z,1.80
2023-03-05T00:45:28.159Z,1.80
2023-03-05T00:46:00.057Z,1.90
2023-03-05T00:46:32.988Z,1.90
2023-03-05T00:47:05.016Z,1.90
2023-03-05T00:47:37.198Z,1.90
2023-03-05T00:48:10.872Z,1.90
2023-03-05T00:48:42.671Z,1.80
2023-03-05T00:49:14.716Z,1.80
2023-03-05T00:49:47.592Z,1.80
2023-03-05T00:50:19.749Z,1.80
2023-03-05T00:50:51.756Z,1.70
2023-03-05T00:51:24.350Z,1.70
2023-03-05T00:51:57.090Z,1.70
2023-03-05T00:52:28.994Z,1.70
2023-03-05T00:53:00.798Z,1.70
2023-03-05T00:53:32.621Z,1.70
2023-03-05T00:54:06.398Z,1.70
2023-03-05T00:54:38.186Z,1.70
2023-03-05T00:55:10.398Z,1.70
2023-03-05T00:55:43.317Z,1.70
2023-03-05T00:56:16.218Z,1.70
2023-03-05T00:56:49.073Z,1.70
2023-03-05T00:57:20.967Z,1.70
2023-03-05T00:57:53.730Z,1.70
2023-03-05T00:58:25.719Z,1.70
2023-03-05T00:58:58.891Z,1.70
2023-03-05T00:59:30.909Z,1.70
2023-03-05T01:00:04.590Z,1.70
2023-03-05T01:00:36.620Z,1.70
2023-03-05T01:01:08.553Z,1.70
2023-03-05T01:01:41.541Z,1.70
2023-03-05T01:02:13.667Z,1.70
2023-03-05T01:02:45.583Z,1.70
2023-03-05T01:03:17.516Z,1.70
2023-03-05T01:03:50.376Z,1.80
2023-03-05T01:04:22.310Z,1.70
2023-03-05T01:04:54.130Z,1.80
2023-03-05T01:05:26.021Z,1.80
2023-03-05T01:05:59.401Z,1.70
2023-03-05T01:06:31.269Z,1.70
2023-03-05T01:07:03.111Z,1.70
2023-03-05T01:07:35.899Z,1.80
2023-03-05T01:08:07.746Z,1.80
2023-03-05T01:08:39.824Z,1.80
2023-03-05T01:09:12.667Z,1.80
2023-03-05T01:09:44.510Z,1.90
2023-03-05T01:10:16.604Z,1.80
2023-03-05T01:10:49.516Z,1.80
2023-03-05T01:11:21.343Z,1.80
2023-03-05T01:11:54.779Z,1.80
2023-03-05T01:12:26.567Z,1.80
2023-03-05T01:12:58.397Z,1.80
2023-03-05T01:13:31.231Z,1.80
2023-03-05T01:14:04.454Z,1.90
2023-03-05T01:14:36.654Z,1.80
2023-03-05T01:15:09.878Z,1.80
2023-03-05T01:15:41.807Z,1.80
2023-03-05T01:16:13.756Z,1.80
2023-03-05T01:16:46.933Z,1.90
2023-03-05T01:17:18.747Z,1.80
2023-03-05T01:17:50.868Z,1.80
2023-03-05T01:18:22.676Z,1.80
2023-03-05T01:18:55.587Z,1.80
2023-03-05T01:19:27.423Z,1.80
2023-03-05T01:19:59.244Z,1.80
2023-03-05T01:20:31.070Z,1.80
2023-03-05T01:21:05.392Z,1.80
2023-03-05T01:21:37.693Z,1.90
2023-03-05T01:22:09.456Z,1.90
2023-03-05T01:22:42.227Z,1.90
2023-03-05T01:23:14.200Z,1.90
2023-03-05T01:23:46.113Z,1.90
2023-03-05T01:24:18.867Z,1.90
2023-03-05T01:24:50.724Z,1.90
2023-03-05T01:25:22.521Z,1.80
2023-03-05T01:25:55.053Z,1.80
2023-03-05T01:26:28.171Z,1.80
2023-03-05T01:26:59.989Z,1.80
2023-03-05T01:27:31.961Z,1.80
2023-03-05T01:28:05.200Z,1.90
2023-03-05T01:28:38.404Z,1.90
2023-03-05T01:29:11.750Z,1.90
2023-03-05T01:29:44.558Z,1.90
2023-03-05T01:30:16.548Z,2.00
2023-03-05T01:30:48.362Z,2.00
2023-03-05T01:31:21.305Z,2.00
2023-03-05T01:31:53.205Z,2.00
2023-03-05T01:32:25.085Z,2.00
2023-03-05T01:32:56.998Z,2.00
2023-03-05T01:33:29.800Z,2.00
2023-03-05T01:34:01.625Z,2.00
2023-03-05T01:34:33.490Z,2.00
2023-03-05T01:35:07.777Z,2.00
2023-03-05T01:35:39.591Z,2.00
2023-03-05T01:36:14.723Z,2.10
2023-03-05T01:36:49.869Z,2.10
2023-03-05T01:37:21.686Z,2.10
2023-03-05T01:37:54.414Z,2.10
2023-03-05T01:38:27.265Z,2.10
2023-03-05T01:38:59.219Z,2.10
2023-03-05T01:39:31.145Z,2.10
2023-03-05T01:40:03.988Z,2.10
2023-03-05T01:40:35.781Z,2.10
2023-03-05T01:41:08.398Z,2.10
2023-03-05T01:41:41.219Z,2.10
2023-03-05T01:42:13.036Z,2.10
2023-03-05T01:42:46.975Z,2.10
2023-03-05T01:43:26.042Z,2.10
2023-03-05T01:43:57.962Z,2.10
2023-03-05T01:44:32.892Z,2.10
2023-03-05T01:45:07.664Z,2.10
2023-03-05T01:45:59.756Z,2.10
2023-03-05T01:46:35.680Z,2.10
2023-03-05T01:47:07.471Z,2.10
2023-03-05T01:47:40.211Z,2.20
2023-03-05T01:48:13.162Z,2.20
2023-03-05T01:48:49.493Z,2.20
2023-03-05T01:49:25.660Z,2.30
2023-03-05T01:49:57.618Z,2.20
2023-03-05T01:50:29.764Z,2.20
2023-03-05T01:51:01.592Z,2.20
2023-03-05T01:51:38.962Z,2.20
2023-03-05T01:52:17.501Z,2.20
2023-03-05T01:52:54.394Z,2.10
2023-03-05T01:53:26.242Z,2.10
2023-03-05T01:53:59.453Z,2.10
2023-03-05T01:54:36.122Z,2.00
2023-03-05T01:55:12.149Z,2.10
2023-03-05T01:55:44.173Z,2.00
2023-03-05T01:56:16.605Z,2.00
2023-03-05T01:56:51.091Z,2.00
2023-03-05T01:57:27.983Z,2.00
2023-03-05T01:58:03.136Z,2.00
2023-03-05T01:58:36.105Z,2.00
2023-03-05T01:59:08.766Z,2.00
2023-03-05T01:59:44.570Z,2.00
2023-03-05T02:00:19.687Z,2.00
2023-03-05T02:00:54.173Z,2.00
2023-03-05T02:01:26.283Z,2.00
2023-03-05T02:02:00.338Z,2.00
2023-03-05T02:02:32.682Z,2.00
2023-03-05T02:03:07.433Z,2.00
2023-03-05T02:03:41.523Z,2.00
2023-03-05T02:04:16.936Z,2.00
2023-03-05T02:04:52.545Z,1.90
2023-03-05T02:05:28.797Z,2.00
2023-03-05T02:06:00.622Z,2.00
2023-03-05T02:06:33.700Z,2.00
2023-03-05T02:07:05.907Z,2.00
2023-03-05T02:07:40.061Z,2.00
2023-03-05T02:08:15.364Z,2.00
2023-03-05T02:08:47.241Z,1.90
2023-03-05T02:09:23.413Z,1.90
2023-03-05T02:09:55.312Z,1.90
2023-03-05T02:10:29.696Z,1.90
2023-03-05T02:11:02.779Z,1.90
2023-03-05T02:11:34.906Z,1.90
2023-03-05T02:12:07.733Z,1.90
2023-03-05T02:12:41.200Z,1.90
2023-03-05T02:13:15.651Z,1.90
2023-03-05T02:13:47.698Z,1.90
2023-03-05T02:14:21.179Z,1.90
2023-03-05T02:14:59.168Z,1.90
2023-03-05T02:15:32.529Z,1.90
2023-03-05T02:16:05.877Z,1.90
2023-03-05T02:16:38.546Z,2.00
2023-03-05T02:17:11.517Z,1.90
2023-03-05T02:17:44.493Z,1.90
2023-03-05T02:18:17.327Z,2.00
2023-03-05T02:18:49.147Z,1.90
2023-03-05T02:19:21.899Z,2.00
2023-03-05T02:19:55.424Z,1.90
2023-03-05T02:20:29.913Z,2.00
2023-03-05T02:21:05.854Z,2.00
2023-03-05T02:21:39.942Z,2.00
2023-03-05T02:22:14.879Z,2.10
2023-03-05T02:22:48.119Z,2.10
2023-03-05T02:23:22.482Z,2.10
2023-03-05T02:23:54.589Z,2.10
2023-03-05T02:24:35.995Z,2.10
2023-03-05T02:25:19.006Z,2.10
2023-03-05T02:25:51.466Z,2.10
2023-03-05T02:26:24.208Z,2.10
2023-03-05T02:26:56.123Z,2.10
2023-03-05T02:27:34.954Z,2.10
2023-03-05T02:28:13.995Z,2.10
2023-03-05T02:28:49.338Z,2.10
2023-03-05T02:29:21.352Z,2.00
2023-03-05T02:29:54.127Z,2.00
2023-03-05T02:30:26.080Z,2.00
2023-03-05T02:30:58.029Z,2.10
2023-03-05T02:31:31.956Z,2.10
2023-03-05T02:32:04.326Z,2.10
2023-03-05T02:32:36.251Z,2.00
2023-03-05T02:33:09.252Z,2.00
2023-03-05T02:33:41.360Z,2.00
2023-03-05T02:34:13.231Z,2.00
2023-03-05T02:34:45.043Z,2.00
2023-03-05T02:35:17.946Z,2.10
2023-03-05T02:35:49.928Z,2.10
2023-03-05T02:36:23.753Z,2.10
2023-03-05T02:36:56.540Z,2.00
2023-03-05T02:37:28.356Z,2.10
2023-03-05T02:38:00.487Z,2.00
2023-03-05T02:38:33.308Z,2.00
2023-03-05T02:39:05.229Z,2.00
2023-03-05T02:39:39.512Z,2.00
2023-03-05T02:40:13.233Z,2.00
2023-03-05T02:40:45.205Z,2.00
2023-03-05T02:41:17.975Z,2.00
2023-03-05T02:41:49.838Z,2.00
2023-03-05T02:42:21.652Z,2.00
2023-03-05T02:42:54.865Z,2.00
2023-03-05T02:43:26.924Z,2.00
2023-03-05T02:43:58.771Z,2.00
2023-03-05T02:44:31.648Z,2.00
2023-03-05T02:45:04.514Z,2.00
2023-03-05T02:45:36.671Z,1.90
2023-03-05T02:46:09.769Z,2.00
2023-03-05T02:46:41.706Z,1.90
2023-03-05T02:47:13.507Z,2.00
2023-03-05T02:47:46.405Z,1.90
2023-03-05T02:48:18.171Z,1.90
2023-03-05T02:48:50.253Z,1.90
2023-03-05T02:49:22.017Z,2.00
2023-03-05T02:49:55.016Z,2.00
2023-03-05T02:50:27.244Z,1.90
2023-03-05T02:50:59.431Z,2.00
2023-03-05T02:51:33.529Z,2.00
2023-03-05T02:52:06.020Z,2.00
2023-03-05T02:52:38.326Z,2.00
2023-03-05T02:53:11.114Z,2.00
2023-03-05T02:53:42.908Z,2.20
2023-03-05T02:54:14.703Z,2.10
2023-03-05T02:54:46.494Z,2.10
2023-03-05T02:55:19.241Z,2.00
2023-03-05T02:55:51.080Z,2.10
2023-03-05T02:56:22.897Z,2.10
2023-03-05T02:56:55.662Z,2.10
2023-03-05T02:57:27.502Z,2.10
2023-03-05T02:57:59.344Z,2.10
2023-03-05T02:58:32.089Z,2.10
2023-03-05T02:59:03.939Z,2.10
2023-03-05T02:59:35.796Z,2.10
2023-03-05T03:00:10.634Z,2.10
2023-03-05T03:00:42.708Z,2.10
2023-03-05T03:01:14.647Z,2.10
2023-03-05T03:01:47.431Z,2.10
2023-03-05T03:02:19.226Z,2.20
2023-03-05T03:02:51.130Z,2.20
2023-03-05T03:03:24.009Z,2.20
2023-03-05T03:03:55.999Z,2.20
2023-03-05T03:04:27.766Z,2.20
2023-03-05T03:05:00.546Z,2.20
2023-03-05T03:05:32.436Z,2.20
2023-03-05T03:06:04.840Z,2.20
2023-03-05T03:06:39.029Z,2.30
2023-03-05T03:07:11.488Z,2.30
2023-03-05T03:07:43.321Z,2.30
2023-03-05T03:08:16.131Z,2.30
2023-03-05T03:08:47.957Z,2.30
2023-03-05T03:09:20.878Z,2.30
2023-03-05T03:09:52.794Z,2.30
2023-03-05T03:10:24.671Z,2.30
2023-03-05T03:10:57.491Z,2.30
2023-03-05T03:11:29.307Z,2.30
2023-03-05T03:12:01.188Z,2.30
2023-03-05T03:12:38.131Z,2.30
2023-03-05T03:13:09.984Z,2.30
2023-03-05T03:13:42.126Z,2.20
2023-03-05T03:14:14.959Z,2.20
2023-03-05T03:14:46.843Z,2.20
2023-03-05T03:15:18.937Z,2.20
2023-03-05T03:15:51.872Z,2.20
2023-03-05T03:16:23.717Z,2.20
2023-03-05T03:16:55.610Z,2.20
2023-03-05T03:17:28.472Z,2.20
2023-03-05T03:18:00.316Z,2.30
2023-03-05T03:18:32.151Z,2.30
2023-03-05T03:19:04.978Z,2.30
2023-03-05T03:19:37.216Z,2.40
2023-03-05T03:20:13.911Z,2.40
2023-03-05T03:20:47.128Z,2.40
2023-03-05T03:21:21.460Z,2.40
2023-03-05T03:21:55.008Z,2.40
2023-03-05T03:22:27.804Z,2.40
2023-03-05T03:22:59.662Z,2.40
2023-03-05T03:23:31.858Z,2.40
2023-03-05T03:24:05.043Z,2.40
2023-03-05T03:24:39.029Z,2.40
2023-03-05T03:25:13.799Z,2.40
2023-03-05T03:25:46.520Z,2.40
2023-03-05T03:26:18.679Z,2.40
2023-03-05T03:26:50.459Z,2.40
2023-03-05T03:27:23.806Z,2.40
2023-03-05T03:27:55.691Z,2.40
2023-03-05T03:28:27.494Z,2.40
2023-03-05T03:29:00.270Z,2.40
2023-03-05T03:29:32.420Z,2.40
2023-03-05T03:30:05.501Z,2.50
2023-03-05T03:30:38.289Z,2.50
2023-03-05T03:31:10.206Z,2.50
2023-03-05T03:31:42.163Z,2.50
2023-03-05T03:32:14.077Z,2.50
2023-03-05T03:32:46.858Z,2.50
2023-03-05T03:33:18.749Z,2.50
2023-03-05T03:33:51.681Z,2.40
2023-03-05T03:34:23.663Z,2.40
2023-03-05T03:34:55.456Z,2.40
2023-03-05T03:35:28.270Z,2.40
2023-03-05T03:36:00.393Z,2.40
2023-03-05T03:36:32.271Z,2.40
2023-03-05T03:37:06.677Z,2.40
2023-03-05T03:37:38.745Z,2.40
2023-03-05T03:38:11.764Z,2.40
2023-03-05T03:38:43.608Z,2.40
2023-03-05T03:39:17.223Z,2.40
2023-03-05T03:39:49.037Z,2.40
2023-03-05T03:40:22.004Z,2.40
2023-03-05T03:40:53.797Z,2.40
2023-03-05T03:41:25.598Z,2.40
2023-03-05T03:41:58.331Z,2.40
2023-03-05T03:42:30.143Z,2.50
2023-03-05T03:43:01.967Z,2.50
2023-03-05T03:43:34.814Z,2.60
2023-03-05T03:44:08.678Z,2.60
2023-03-05T03:44:40.451Z,2.60
2023-03-05T03:45:13.182Z,2.60
2023-03-05T03:45:46.041Z,2.60
2023-03-05T03:46:17.970Z,2.60
2023-03-05T03:46:50.861Z,2.60
2023-03-05T03:47:23.702Z,2.60
2023-03-05T03:47:55.552Z,2.60
2023-03-05T03:48:28.317Z,2.60
2023-03-05T03:49:00.171Z,2.60
2023-03-05T03:49:31.977Z,2.60
2023-03-05T03:50:05.991Z,2.70
2023-03-05T03:50:39.359Z,2.70
2023-03-05T03:51:11.155Z,2.70
2023-03-05T03:51:44.087Z,2.70
2023-03-05T03:52:17.318Z,2.70
2023-03-05T03:52:49.080Z,2.70
2023-03-05T03:53:21.851Z,2.70
2023-03-05T03:53:54.026Z,2.70
2023-03-05T03:54:25.841Z,2.70
2023-03-05T03:55:01.507Z,2.70
2023-03-05T03:55:33.531Z,2.70
2023-03-05T03:56:05.886Z,2.70
2023-03-05T03:56:38.669Z,2.70
2023-03-05T03:57:10.479Z,2.70
2023-03-05T03:57:43.605Z,2.60
2023-03-05T03:58:15.423Z,2.70
2023-03-05T03:58:49.889Z,2.60
2023-03-05T03:59:22.795Z,2.60
2023-03-05T03:59:54.609Z,2.70
2023-03-05T04:00:27.874Z,2.70
2023-03-05T04:01:00.684Z,2.70
2023-03-05T04:01:32.552Z,2.70
2023-03-05T04:02:04.336Z,2.70
2023-03-05T04:02:37.364Z,2.80
2023-03-05T04:03:09.355Z,2.80
2023-03-05T04:03:41.161Z,2.80
2023-03-05T04:04:14.548Z,2.80
2023-03-05T04:04:46.377Z,2.80
2023-03-05T04:05:18.290Z,2.80
2023-03-05T04:05:51.028Z,2.80
2023-03-05T04:06:22.917Z,2.80
2023-03-05T04:06:54.705Z,2.80
2023-03-05T04:07:28.837Z,2.80
2023-03-05T04:08:01.359Z,2.90
2023-03-05T04:08:33.210Z,2.90
2023-03-05T04:09:07.999Z,2.90
2023-03-05T04:09:39.797Z,2.80
2023-03-05T04:10:12.304Z,2.80
2023-03-05T04:10:45.349Z,2.80
2023-03-05T04:11:19.246Z,2.80
2023-03-05T04:11:51.083Z,2.70
2023-03-05T04:12:23.049Z,2.70
2023-03-05T04:12:55.837Z,2.70
2023-03-05T04:13:27.662Z,2.70
2023-03-05T04:13:59.480Z,2.60
2023-03-05T04:14:31.257Z,2.60
2023-03-05T04:15:04.372Z,2.60
2023-03-05T04:15:36.175Z,2.60
2023-03-05T04:16:08.367Z,2.60
2023-03-05T04:16:40.215Z,2.60
2023-03-05T04:17:13.248Z,2.60
2023-03-05T04:17:45.069Z,2.60
2023-03-05T04:18:16.927Z,2.60
2023-03-05T04:18:49.755Z,2.60
2023-03-05T04:19:21.876Z,2.60
2023-03-05T04:19:53.690Z,2.60
2023-03-05T04:20:25.542Z,2.60
2023-03-05T04:20:58.344Z,2.60
2023-03-05T04:21:30.383Z,2.60
2023-03-05T04:22:02.198Z,2.60
2023-03-05T04:22:36.323Z,2.60
2023-03-05T04:23:08.114Z,2.70
2023-03-05T04:23:40.458Z,2.60
2023-03-05T04:24:13.214Z,2.70
2023-03-05T04:24:45.093Z,2.60
2023-03-05T04:25:17.090Z,2.60
2023-03-05T04:25:49.895Z,2.60
2023-03-05T04:26:21.706Z,2.60
2023-03-05T04:26:53.496Z,2.60
2023-03-05T04:27:26.246Z,2.60
2023-03-05T04:27:58.023Z,2.70
2023-03-05T04:28:29.850Z,2.70
2023-03-05T04:29:02.740Z,2.70
2023-03-05T04:29:35.096Z,2.70
2023-03-05T04:30:08.783Z,2.70
2023-03-05T04:30:41.640Z,2.70
2023-03-05T04:31:13.693Z,2.70
2023-03-05T04:31:45.567Z,2.70
2023-03-05T04:32:23.004Z,2.70
2023-03-05T04:32:54.910Z,2.70
2023-03-05T04:33:26.868Z,2.70
2023-03-05T04:34:00.819Z,2.70
2023-03-05T04:34:33.149Z,2.70
2023-03-05T04:35:05.540Z,2.70
2023-03-05T04:35:38.511Z,2.70
2023-03-05T04:36:10.333Z,2.70
2023-03-05T04:36:42.213Z,2.70
2023-03-05T04:37:14.968Z,2.70
2023-03-05T04:37:49.064Z,2.80
2023-03-05T04:38:20.858Z,2.80
2023-03-05T04:38:52.727Z,2.90
2023-03-05T04:39:25.624Z,2.90
2023-03-05T04:39:57.465Z,2.90
2023-03-05T04:40:29.321Z,3.00
2023-03-05T04:41:02.074Z,3.00
2023-03-05T04:41:33.898Z,3.00
2023-03-05T04:42:06.208Z,3.00
2023-03-05T04:42:39.003Z,3.00
2023-03-05T04:43:10.903Z,3.00
2023-03-05T04:43:42.746Z,3.00
2023-03-05T04:44:15.887Z,3.00
2023-03-05T04:44:49.366Z,3.00
2023-03-05T04:45:21.220Z,3.00
2023-03-05T04:45:55.946Z,2.90
2023-03-05T04:46:27.779Z,3.00
2023-03-05T04:46:59.573Z,3.00
2023-03-05T04:47:32.413Z,3.00
2023-03-05T04:48:04.496Z,2.90
2023-03-05T04:48:36.307Z,2.90
2023-03-05T04:49:09.201Z,2.90
2023-03-05T04:49:41.045Z,2.90
2023-03-05T04:50:13.093Z,2.90
2023-03-05T04:50:45.872Z,3.00
2023-03-05T04:51:17.704Z,2.90
2023-03-05T04:51:49.593Z,2.90
2023-03-05T04:52:22.422Z,2.90
2023-03-05T04:52:55.573Z,2.90
2023-03-05T04:53:27.348Z,2.90
2023-03-05T04:54:00.140Z,2.90
2023-03-05T04:54:31.957Z,2.80
2023-03-05T04:55:04.518Z,2.70
2023-03-05T04:55:37.340Z,2.80
2023-03-05T04:56:09.169Z,2.80
2023-03-05T04:56:40.992Z,2.80
2023-03-05T04:57:12.872Z,2.80
2023-03-05T04:57:45.955Z,2.80
2023-03-05T04:58:17.859Z,2.70
2023-03-05T04:58:49.876Z,2.70
2023-03-05T04:59:22.684Z,2.70
2023-03-05T04:59:54.584Z,2.70
2023-03-05T05:00:26.548Z,2.70
2023-03-05T05:01:03.440Z,2.70
2023-03-05T05:01:35.381Z,2.70
2023-03-05T05:02:07.222Z,2.70
2023-03-05T05:02:39.093Z,2.70
2023-03-05T05:03:11.981Z,2.80
2023-03-05T05:03:43.812Z,2.80
2023-03-05T05:04:15.626Z,2.80
2023-03-05T05:04:47.476Z,2.80
2023-03-05T05:05:22.078Z,2.80
2023-03-05T05:05:56.969Z,2.80
2023-03-05T05:06:28.913Z,2.90
2023-03-05T05:07:01.728Z,2.90
2023-03-05T05:07:33.593Z,2.90
2023-03-05T05:08:06.940Z,2.90
2023-03-05T05:08:39.734Z,2.90
2023-03-05T05:09:11.544Z,2.90
2023-03-05T05:09:43.371Z,2.90
2023-03-05T05:10:16.948Z,2.90
2023-03-05T05:10:56.346Z,2.90
2023-03-05T05:11:28.171Z,2.90
2023-03-05T05:12:00.998Z,2.90
2023-03-05T05:12:32.816Z,2.90
2023-03-05T05:13:04.646Z,2.90
2023-03-05T05:13:37.416Z,2.90
2023-03-05T05:14:09.232Z,2.80
2023-03-05T05:14:41.059Z,2.80
2023-03-05T05:15:14.655Z,2.80
2023-03-05T05:15:46.487Z,2.80
2023-03-05T05:16:18.440Z,2.80
2023-03-05T05:16:51.347Z,2.80
2023-03-05T05:17:23.154Z,2.80
2023-03-05T05:17:54.947Z,2.80
2023-03-05T05:18:28.006Z,2.80
2023-03-05T05:18:59.867Z,2.90
2023-03-05T05:19:31.903Z,2.90
2023-03-05T05:20:07.679Z,2.90
2023-03-05T05:20:39.489Z,2.90
2023-03-05T05:21:13.520Z,2.90
2023-03-05T05:21:46.291Z,2.90
2023-03-05T05:22:18.461Z,2.90
2023-03-05T05:22:50.824Z,2.90
2023-03-05T05:23:25.261Z,2.90
2023-03-05T05:23:57.086Z,2.90
2023-03-05T05:24:28.905Z,2.80
2023-03-05T05:25:01.054Z,2.80
2023-03-05T05:25:33.887Z,2.80
2023-03-05T05:26:07.604Z,2.80
2023-03-05T05:26:39.382Z,2.80
2023-03-05T05:27:12.170Z,2.80
2023-03-05T05:27:44.021Z,2.80
2023-03-05T05:28:15.795Z,2.80
2023-03-05T05:28:48.972Z,2.80
2023-03-05T05:29:20.779Z,2.80
2023-03-05T05:29:52.972Z,2.70
2023-03-05T05:30:24.865Z,2.70
2023-03-05T05:30:58.369Z,2.70
2023-03-05T05:31:30.212Z,2.70
2023-03-05T05:32:02.074Z,2.70
2023-03-05T05:32:34.426Z,2.70
2023-03-05T05:33:07.300Z,2.70
2023-03-05T05:33:39.329Z,2.70
2023-03-05T05:34:11.116Z,2.70
2023-03-05T05:34:43.866Z,2.70
2023-03-05T05:35:15.846Z,2.70
2023-03-05T05:35:47.755Z,2.80
2023-03-05T05:36:22.144Z,2.80
2023-03-05T05:36:54.039Z,2.80
2023-03-05T05:37:27.989Z,2.70
2023-03-05T05:37:59.817Z,2.70
2023-03-05T05:38:33.343Z,2.70
2023-03-05T05:39:06.276Z,2.80
2023-03-05T05:39:38.258Z,2.80
2023-03-05T05:40:11.358Z,2.80
2023-03-05T05:40:44.253Z,2.80
2023-03-05T05:41:18.091Z,2.80
2023-03-05T05:41:51.413Z,2.80
2023-03-05T05:42:25.866Z,2.80
2023-03-05T05:42:57.674Z,2.80
2023-03-05T05:43:29.505Z,2.80
2023-03-05T05:44:02.262Z,2.80
2023-03-05T05:44:34.849Z,2.80
2023-03-05T05:45:08.039Z,2.80
2023-03-05T05:45:40.074Z,2.80
2023-03-05T05:46:15.573Z,2.80
2023-03-05T05:46:47.456Z,2.70
2023-03-05T05:47:20.435Z,2.70
2023-03-05T05:47:53.265Z,2.80
2023-03-05T05:48:25.122Z,2.80
2023-03-05T05:48:56.951Z,2.80
2023-03-05T05:49:29.751Z,2.90
2023-03-05T05:50:01.559Z,2.90
2023-03-05T05:50:33.393Z,2.90
2023-03-05T05:51:07.394Z,2.90
2023-03-05T05:51:39.195Z,2.90
2023-03-05T05:52:11.198Z,3.00
2023-03-05T05:52:43.987Z,3.00
2023-03-05T05:53:15.845Z,3.00
2023-03-05T05:53:49.558Z,3.00
2023-03-05T05:54:22.329Z,3.10
2023-03-05T05:54:54.194Z,3.10
2023-03-05T05:55:26.032Z,3.10
2023-03-05T05:55:58.947Z,3.10
2023-03-05T05:56:30.767Z,3.20
2023-03-05T05:57:02.571Z,3.20
2023-03-05T05:57:34.740Z,3.20
2023-03-05T05:58:07.623Z,3.20
2023-03-05T05:58:40.913Z,3.20
2023-03-05T05:59:12.695Z,3.10
2023-03-05T05:59:45.493Z,3.10
2023-03-05T06:00:18.067Z,3.00
2023-03-05T06:00:49.875Z,3.00
2023-03-05T06:01:25.173Z,3.00
2023-03-05T06:01:57.165Z,3.00
2023-03-05T06:02:28.998Z,3.00
2023-03-05T06:03:01.876Z,3.00
2023-03-05T06:03:33.733Z,3.00
2023-03-05T06:04:05.509Z,3.00
2023-03-05T06:04:39.923Z,3.00
2023-03-05T06:05:14.625Z,3.00
2023-03-05T06:05:47.537Z,3.00
2023-03-05T06:06:22.668Z,3.00
2023-03-05T06:06:54.524Z,3.00
2023-03-05T06:07:26.412Z,3.00
2023-03-05T06:07:59.164Z,3.00
2023-03-05T06:08:31.008Z,3.00
2023-03-05T06:09:04.482Z,3.00
2023-03-05T06:09:37.552Z,3.00
2023-03-05T06:10:10.470Z,3.10
2023-03-05T06:10:42.309Z,3.10
2023-03-05T06:11:17.137Z,3.10
2023-03-05T06:11:50.671Z,3.10
2023-03-05T06:12:22.449Z,3.10
2023-03-05T06:12:55.207Z,3.10
2023-03-05T06:13:27.017Z,3.10
2023-03-05T06:13:58.899Z,3.10
2023-03-05T06:14:31.731Z,3.10
2023-03-05T06:15:04.341Z,2.90
2023-03-05T06:15:36.246Z,3.10
2023-03-05T06:16:12.085Z,3.10
2023-03-05T06:16:44.031Z,3.10
2023-03-05T06:17:25.100Z,3.10
2023-03-05T06:18:03.076Z,3.10
2023-03-05T06:18:35.154Z,3.10
2023-03-05T06:19:07.042Z,3.10
2023-03-05T06:19:39.815Z,3.10
2023-03-05T06:20:12.504Z,3.20
2023-03-05T06:20:44.288Z,3.20
2023-03-05T06:21:18.653Z,3.20
2023-03-05T06:21:50.461Z,3.20
2023-03-05T06:22:22.296Z,3.10
2023-03-05T06:22:55.092Z,3.20
2023-03-05T06:23:27.684Z,3.20
2023-03-05T06:23:59.514Z,3.20
2023-03-05T06:24:33.666Z,3.20
2023-03-05T06:25:06.852Z,3.20
2023-03-05T06:25:38.666Z,3.20
2023-03-05T06:26:13.716Z,3.20
2023-03-05T06:26:46.635Z,3.10
2023-03-05T06:27:18.521Z,3.10
2023-03-05T06:27:51.270Z,3.10
2023-03-05T06:28:23.202Z,3.10
2023-03-05T06:28:55.281Z,3.10
2023-03-05T06:29:28.140Z,3.10
2023-03-05T06:30:00.054Z,3.10
2023-03-05T06:30:31.873Z,3.10
2023-03-05T06:31:06.735Z,3.10
2023-03-05T06:31:39.310Z,3.10
2023-03-05T06:32:11.149Z,3.10
2023-03-05T06:32:44.014Z,3.10
2023-03-05T06:33:16.018Z,3.10
2023-03-05T06:33:48.443Z,3.00
2023-03-05T06:34:21.218Z,3.00
2023-03-05T06:34:53.255Z,3.00
2023-03-05T06:35:25.160Z,3.00
2023-03-05T06:35:58.174Z,3.00
2023-03-05T06:36:30.217Z,2.90
2023-03-05T06:37:02.305Z,2.90
2023-03-05T06:37:35.139Z,2.90
2023-03-05T06:38:07.968Z,2.90
2023-03-05T06:38:40.521Z,2.90
2023-03-05T06:39:13.381Z,2.90
2023-03-05T06:39:46.515Z,2.90
2023-03-05T06:40:18.628Z,2.90
2023-03-05T06:40:51.558Z,3.00
2023-03-05T06:41:25.932Z,3.00
2023-03-05T06:41:57.757Z,3.00
2023-03-05T06:42:30.555Z,3.00
2023-03-05T06:43:02.340Z,3.00
2023-03-05T06:43:35.633Z,3.10
2023-03-05T06:44:08.423Z,3.10
2023-03-05T06:44:40.854Z,3.10
2023-03-05T06:45:13.065Z,3.30
2023-03-05T06:45:45.896Z,3.20
2023-03-05T06:46:19.849Z,3.20
2023-03-05T06:46:51.716Z,3.20
2023-03-05T06:47:24.477Z,3.20
2023-03-05T06:47:56.262Z,3.20
2023-03-05T06:48:28.089Z,3.20
2023-03-05T06:49:03.695Z,3.20
2023-03-05T06:49:35.486Z,3.30
2023-03-05T06:50:08.986Z,3.20
2023-03-05T06:50:40.787Z,3.10
2023-03-05T06:51:17.373Z,3.10
2023-03-05T06:51:50.180Z,3.10
2023-03-05T06:52:21.982Z,3.10
2023-03-05T06:52:53.819Z,3.10
2023-03-05T06:53:27.112Z,3.00
2023-03-05T06:54:01.560Z,3.20
2023-03-05T06:54:33.443Z,3.20
2023-03-05T06:55:08.298Z,3.20
2023-03-05T06:55:40.226Z,3.20
2023-03-05T06:56:13.918Z,3.20
2023-03-05T06:56:48.092Z,3.20
2023-03-05T06:57:20.003Z,3.20
2023-03-05T06:57:51.807Z,3.20
2023-03-05T06:58:24.836Z,3.20
2023-03-05T06:58:56.935Z,3.30
2023-03-05T06:59:28.804Z,3.30
2023-03-05T07:00:01.584Z,3.30
2023-03-05T07:00:33.384Z,3.30
2023-03-05T07:01:06.140Z,3.40
2023-03-05T07:01:39.015Z,3.40
2023-03-05T07:02:11.892Z,3.40
2023-03-05T07:02:43.829Z,3.40
2023-03-05T07:03:15.732Z,3.40
2023-03-05T07:03:50.739Z,3.40
2023-03-05T07:04:24.069Z,3.50
2023-03-05T07:04:56.852Z,3.30
2023-03-05T07:05:28.635Z,3.30
2023-03-05T07:06:03.404Z,3.30
2023-03-05T07:06:38.441Z,3.30
2023-03-05T07:07:10.252Z,3.30
2023-03-05T07:07:42.049Z,3.20
2023-03-05T07:08:14.810Z,3.20
2023-03-05T07:08:46.965Z,3.20
2023-03-05T07:09:18.811Z,3.20
2023-03-05T07:09:52.976Z,3.20
2023-03-05T07:10:26.109Z,3.30
2023-03-05T07:10:58.160Z,3.30
2023-03-05T07:11:31.284Z,3.20
2023-03-05T07:12:03.096Z,3.20
2023-03-05T07:12:35.230Z,3.20
2023-03-05T07:13:08.418Z,3.30
2023-03-05T07:13:40.268Z,3.30
2023-03-05T07:14:12.108Z,3.30
2023-03-05T07:14:44.871Z,3.30
2023-03-05T07:15:16.867Z,3.40
2023-03-05T07:15:48.881Z,3.40
2023-03-05T07:16:23.632Z,3.40